createdAt,value
2016-03-22T00:00:10.986Z,950.99
2016-03-22T00:01:10.989Z,950.98
2016-03-22T00:02:11.006Z,950.95
2016-03-22T00:03:11.010Z,950.93
2016-03-22T00:04:11.028Z,950.88
2016-03-22T00:05:11.046Z,950.89
2016-03-22T00:06:11.050Z,950.88
2016-03-22T00:07:11.067Z,950.88
2016-03-22T00:08:11.085Z,950.91
2016-03-22T00:09:11.088Z,950.88
2016-03-22T00:10:11.106Z,950.91
2016-03-22T00:11:11.125Z,950.91
2016-03-22T00:12:11.128Z,950.92
2016-03-22T00:13:11.146Z,950.95
2016-03-22T00:14:11.163Z,950.92
2016-03-22T00:15:11.183Z,950.87
2016-03-22T00:16:11.185Z,950.87
2016-03-22T00:17:11.203Z,950.86
2016-03-22T00:18:11.207Z,950.85
2016-03-22T00:19:11.224Z,950.87
2016-03-22T00:20:11.243Z,950.9
2016-03-22T00:21:11.246Z,950.87
2016-03-22T00:22:11.263Z,950.85
2016-03-22T00:23:11.282Z,950.84
2016-03-22T00:24:11.332Z,950.83
2016-03-22T00:25:11.303Z,950.82
2016-03-22T00:26:11.306Z,950.85
2016-03-22T00:27:11.324Z,950.86
2016-03-22T00:28:11.342Z,950.88
2016-03-22T00:29:11.345Z,950.86
2016-03-22T00:30:11.363Z,950.85
2016-03-22T00:31:11.381Z,950.82
2016-03-22T00:32:11.602Z,950.81
2016-03-22T00:33:11.402Z,950.8
2016-03-22T00:34:11.420Z,950.77
2016-03-22T00:35:11.438Z,950.76
2016-03-22T00:36:11.441Z,950.75
2016-03-22T00:37:11.459Z,950.76
2016-03-22T00:38:11.463Z,950.72
2016-03-22T00:39:11.496Z,950.71
2016-03-22T00:40:11.499Z,950.68
2016-03-22T00:41:11.501Z,950.7
2016-03-22T00:42:11.520Z,950.65
2016-03-22T00:43:11.538Z,950.68
2016-03-22T00:44:11.540Z,950.68
2016-03-22T00:45:11.559Z,950.65
2016-03-22T00:46:11.562Z,950.64
2016-03-22T00:47:11.580Z,950.67
2016-03-22T00:48:11.582Z,950.65
2016-03-22T00:49:11.601Z,950.63
2016-03-22T00:50:11.620Z,950.61
2016-03-22T00:51:11.637Z,950.57
2016-03-22T00:52:11.640Z,950.56
2016-03-22T00:53:11.658Z,950.52
2016-03-22T00:54:11.709Z,950.5
2016-03-22T00:55:11.680Z,950.53
2016-03-22T00:56:11.683Z,950.52
2016-03-22T00:57:11.700Z,950.5
2016-03-22T00:58:11.719Z,950.51
2016-03-22T00:59:11.721Z,950.52
2016-03-22T01:00:11.740Z,950.48
2016-03-22T01:01:11.758Z,950.45
2016-03-22T01:02:11.760Z,950.45
2016-03-22T01:03:11.780Z,950.4
2016-03-22T01:04:11.797Z,950.41
2016-03-22T01:05:11.816Z,950.38
2016-03-22T01:06:11.819Z,950.4
2016-03-22T01:07:11.821Z,950.38
2016-03-22T01:08:11.855Z,950.43
2016-03-22T01:09:11.874Z,950.37
2016-03-22T01:10:11.860Z,950.36
2016-03-22T01:11:11.879Z,950.35
2016-03-22T01:12:11.897Z,950.35
2016-03-22T01:13:11.899Z,950.31
2016-03-22T01:14:11.919Z,950.3
2016-03-22T01:15:11.937Z,950.31
2016-03-22T01:16:11.940Z,950.28
2016-03-22T01:17:11.957Z,950.31
2016-03-22T01:18:11.976Z,950.33
2016-03-22T01:19:11.994Z,950.32
2016-03-22T01:20:11.997Z,950.3
2016-03-22T01:21:12.000Z,950.29
2016-03-22T01:22:12.017Z,950.22
2016-03-22T01:23:12.021Z,950.22
2016-03-22T01:24:12.039Z,950.21
2016-03-22T01:25:12.056Z,950.21
2016-03-22T01:26:12.076Z,950.18
2016-03-22T01:27:12.078Z,950.18
2016-03-22T01:28:12.097Z,950.18
2016-03-22T01:29:12.114Z,950.15
2016-03-22T01:30:12.117Z,950.16
2016-03-22T01:31:12.136Z,950.15
2016-03-22T01:32:12.155Z,950.11
2016-03-22T01:33:12.157Z,950.12
2016-03-22T01:34:12.160Z,950.11
2016-03-22T01:35:12.178Z,950.06
2016-03-22T01:36:12.196Z,950.11
2016-03-22T01:37:12.199Z,950.1
2016-03-22T01:38:12.216Z,950.05
2016-03-22T01:39:12.236Z,950.11
2016-03-22T01:40:12.238Z,950.11
2016-03-22T01:41:12.257Z,950.07
2016-03-22T01:42:12.259Z,950.06
2016-03-22T01:43:12.277Z,950.06
2016-03-22T01:44:12.296Z,950.04
2016-03-22T01:45:12.314Z,950.04
2016-03-22T01:46:12.317Z,950.05
2016-03-22T01:47:12.334Z,950.05
2016-03-22T01:48:12.354Z,950.02
2016-03-22T01:49:12.356Z,949.99
2016-03-22T01:50:12.374Z,950.02
2016-03-22T01:51:12.377Z,950.01
2016-03-22T01:52:12.395Z,950.06
2016-03-22T01:53:12.398Z,950.01
2016-03-22T01:54:12.417Z,949.96
2016-03-22T01:55:12.434Z,949.98
2016-03-22T01:56:12.437Z,949.96
2016-03-22T01:57:12.452Z,949.96
2016-03-22T01:58:12.441Z,950
2016-03-22T01:59:12.462Z,949.99
2016-03-22T02:00:12.451Z,949.97
2016-03-22T02:01:12.440Z,949.98
2016-03-22T02:02:12.448Z,949.92
2016-03-22T02:03:12.460Z,949.92
2016-03-22T02:04:12.458Z,949.89
2016-03-22T02:05:12.472Z,949.92
2016-03-22T02:06:12.469Z,949.88
2016-03-22T02:07:12.484Z,949.86
2016-03-22T02:08:12.501Z,949.88
2016-03-22T02:09:12.517Z,949.87
2016-03-22T02:10:12.518Z,949.82
2016-03-22T02:11:12.520Z,949.86
2016-03-22T02:12:12.537Z,949.85
2016-03-22T02:13:12.553Z,949.87
2016-03-22T02:14:12.555Z,949.86
2016-03-22T02:15:12.574Z,949.86
2016-03-22T02:16:12.590Z,949.82
2016-03-22T02:17:12.593Z,949.87
2016-03-22T02:18:12.612Z,949.87
2016-03-22T02:19:12.614Z,949.9
2016-03-22T02:20:12.633Z,949.89
2016-03-22T02:21:12.636Z,949.87
2016-03-22T02:22:12.685Z,949.89
2016-03-22T02:23:12.672Z,949.86
2016-03-22T02:24:12.675Z,949.83
2016-03-22T02:25:12.693Z,949.84
2016-03-22T02:26:12.696Z,949.88
2016-03-22T02:27:12.714Z,949.86
2016-03-22T02:28:12.732Z,949.87
2016-03-22T02:29:12.735Z,949.84
2016-03-22T02:30:12.758Z,949.85
2016-03-22T02:31:12.760Z,949.88
2016-03-22T02:32:12.779Z,949.86
2016-03-22T02:33:12.782Z,949.89
2016-03-22T02:34:12.800Z,949.84
2016-03-22T02:35:12.819Z,949.83
2016-03-22T02:36:12.821Z,949.84
2016-03-22T02:37:12.839Z,949.85
2016-03-22T02:38:12.842Z,949.82
2016-03-22T02:39:12.876Z,949.85
2016-03-22T02:40:12.878Z,949.85
2016-03-22T02:41:12.882Z,949.85
2016-03-22T02:42:12.900Z,949.89
2016-03-22T02:43:12.902Z,949.89
2016-03-22T02:44:12.937Z,949.89
2016-03-22T02:45:12.939Z,949.84
2016-03-22T02:46:12.941Z,949.86
2016-03-22T02:47:12.960Z,949.89
2016-03-22T02:48:12.963Z,949.89
2016-03-22T02:49:12.981Z,949.91
2016-03-22T02:50:13.000Z,949.87
2016-03-22T02:51:13.002Z,949.87
2016-03-22T02:52:13.020Z,949.85
2016-03-22T02:53:13.039Z,949.83
2016-03-22T02:54:13.041Z,949.79
2016-03-22T02:55:13.060Z,949.82
2016-03-22T02:56:13.063Z,949.8
2016-03-22T02:57:13.081Z,949.79
2016-03-22T02:58:13.083Z,949.8
2016-03-22T02:59:13.102Z,949.78
2016-03-22T03:00:13.120Z,949.8
2016-03-22T03:01:13.123Z,949.83
2016-03-22T03:02:13.141Z,949.8
2016-03-22T03:03:13.159Z,949.8
2016-03-22T03:04:13.162Z,949.78
2016-03-22T03:05:13.180Z,949.78
2016-03-22T03:06:13.199Z,949.77
2016-03-22T03:07:13.201Z,949.76
2016-03-22T03:08:13.220Z,949.76
2016-03-22T03:09:13.223Z,949.73
2016-03-22T03:10:13.240Z,949.74
2016-03-22T03:11:13.243Z,949.74
2016-03-22T03:12:13.262Z,949.73
2016-03-22T03:13:13.264Z,949.72
2016-03-22T03:14:13.283Z,949.72
2016-03-22T03:15:13.301Z,949.73
2016-03-22T03:16:13.303Z,949.77
2016-03-22T03:17:13.323Z,949.74
2016-03-22T03:18:13.325Z,949.73
2016-03-22T03:19:13.342Z,949.72
2016-03-22T03:20:13.362Z,949.75
2016-03-22T03:21:13.364Z,949.74
2016-03-22T03:22:13.382Z,949.72
2016-03-22T03:23:13.385Z,949.73
2016-03-22T03:24:13.403Z,949.75
2016-03-22T03:25:13.421Z,949.74
2016-03-22T03:26:13.425Z,949.77
2016-03-22T03:27:13.443Z,949.72
2016-03-22T03:28:13.460Z,949.71
2016-03-22T03:29:13.464Z,949.71
2016-03-22T03:30:13.482Z,949.68
2016-03-22T03:31:13.485Z,949.66
2016-03-22T03:32:13.518Z,949.68
2016-03-22T03:33:13.505Z,949.69
2016-03-22T03:34:13.524Z,949.69
2016-03-22T03:35:13.558Z,949.66
2016-03-22T03:36:13.545Z,949.69
2016-03-22T03:37:13.563Z,949.68
2016-03-22T03:38:13.566Z,949.63
2016-03-22T03:39:13.585Z,949.65
2016-03-22T03:40:13.603Z,949.63
2016-03-22T03:41:13.605Z,949.61
2016-03-22T03:42:13.624Z,949.59
2016-03-22T03:43:13.626Z,949.55
2016-03-22T03:44:13.660Z,949.58
2016-03-22T03:45:13.662Z,949.56
2016-03-22T03:46:13.665Z,949.54
2016-03-22T03:47:13.684Z,949.55
2016-03-22T03:48:13.687Z,949.55
2016-03-22T03:49:13.705Z,949.57
2016-03-22T03:50:13.722Z,949.55
2016-03-22T03:51:13.726Z,949.53
2016-03-22T03:52:13.744Z,949.54
2016-03-22T03:53:13.763Z,949.53
2016-03-22T03:54:13.766Z,949.54
2016-03-22T03:55:13.768Z,949.53
2016-03-22T03:56:13.786Z,949.52
2016-03-22T03:57:13.805Z,949.52
2016-03-22T03:58:13.807Z,949.51
2016-03-22T03:59:13.825Z,949.49
2016-03-22T04:00:13.844Z,949.5
2016-03-22T04:01:13.846Z,949.48
2016-03-22T04:02:13.865Z,949.48
2016-03-22T04:03:13.883Z,949.51
2016-03-22T04:04:13.885Z,949.45
2016-03-22T04:05:13.888Z,949.5
2016-03-22T04:06:13.907Z,949.46
2016-03-22T04:07:13.926Z,949.46
2016-03-22T04:08:13.928Z,949.48
2016-03-22T04:09:13.946Z,949.46
2016-03-22T04:10:13.948Z,949.44
2016-03-22T04:11:13.967Z,949.45
2016-03-22T04:12:13.985Z,949.44
2016-03-22T04:13:13.988Z,949.43
2016-03-22T04:14:14.006Z,949.44
2016-03-22T04:15:14.009Z,949.37
2016-03-22T04:16:14.043Z,949.4
2016-03-22T04:17:14.030Z,949.39
2016-03-22T04:18:14.048Z,949.35
2016-03-22T04:19:14.051Z,949.35
2016-03-22T04:20:14.069Z,949.29
2016-03-22T04:21:14.104Z,949.28
2016-03-22T04:22:14.091Z,949.27
2016-03-22T04:23:14.108Z,949.18
2016-03-22T04:24:14.128Z,949.19
2016-03-22T04:25:14.130Z,949.16
2016-03-22T04:26:14.148Z,949.17
2016-03-22T04:27:14.150Z,949.16
2016-03-22T04:28:14.169Z,949.19
2016-03-22T04:29:14.172Z,949.18
2016-03-22T04:30:14.191Z,949.18
2016-03-22T04:31:14.224Z,949.18
2016-03-22T04:32:14.210Z,949.18
2016-03-22T04:33:14.230Z,949.19
2016-03-22T04:34:14.248Z,949.19
2016-03-22T04:35:14.266Z,949.19
2016-03-22T04:36:14.268Z,949.18
2016-03-22T04:37:14.271Z,949.22
2016-03-22T04:38:14.305Z,949.23
2016-03-22T04:39:14.308Z,949.25
2016-03-22T04:40:14.327Z,949.23
2016-03-22T04:41:14.329Z,949.25
2016-03-22T04:42:14.331Z,949.26
2016-03-22T04:43:14.351Z,949.26
2016-03-22T04:44:14.353Z,949.28
2016-03-22T04:45:14.370Z,949.25
2016-03-22T04:46:14.390Z,949.27
2016-03-22T04:47:14.392Z,949.34
2016-03-22T04:48:14.395Z,949.34
2016-03-22T04:49:14.414Z,949.35
2016-03-22T04:50:14.431Z,949.38
2016-03-22T04:51:14.434Z,949.42
2016-03-22T04:52:14.453Z,949.41
2016-03-22T04:53:14.455Z,949.49
2016-03-22T04:54:14.473Z,949.5
2016-03-22T04:55:14.491Z,949.54
2016-03-22T04:56:14.495Z,949.57
2016-03-22T04:57:14.513Z,949.56
2016-03-22T04:58:14.516Z,949.54
2016-03-22T04:59:14.533Z,949.54
2016-03-22T05:00:14.552Z,949.57
2016-03-22T05:01:14.555Z,949.58
2016-03-22T05:02:14.573Z,949.53
2016-03-22T05:03:14.576Z,949.54
2016-03-22T05:04:14.593Z,949.52
2016-03-22T05:05:14.597Z,949.6
2016-03-22T05:06:14.615Z,949.54
2016-03-22T05:07:14.633Z,949.57
2016-03-22T05:08:14.636Z,949.56
2016-03-22T05:09:14.654Z,949.55
2016-03-22T05:10:14.657Z,949.58
2016-03-22T05:11:14.676Z,949.57
2016-03-22T05:12:14.693Z,949.58
2016-03-22T05:13:14.696Z,949.59
2016-03-22T05:14:14.715Z,949.59
2016-03-22T05:15:14.717Z,949.64
2016-03-22T05:16:14.737Z,949.57
2016-03-22T05:17:14.739Z,949.61
2016-03-22T05:18:14.757Z,949.59
2016-03-22T05:19:14.775Z,949.58
2016-03-22T05:20:14.778Z,949.59
2016-03-22T05:21:14.796Z,949.59
2016-03-22T05:22:14.814Z,949.55
2016-03-22T05:23:14.817Z,949.55
2016-03-22T05:24:14.819Z,949.56
2016-03-22T05:25:14.853Z,949.52
2016-03-22T05:26:14.856Z,949.56
2016-03-22T05:27:14.859Z,949.54
2016-03-22T05:28:14.878Z,949.57
2016-03-22T05:29:14.880Z,949.56
2016-03-22T05:30:14.899Z,949.55
2016-03-22T05:31:14.901Z,949.56
2016-03-22T05:32:14.919Z,949.58
2016-03-22T05:33:14.938Z,949.55
2016-03-22T05:34:14.955Z,949.59
2016-03-22T05:35:14.959Z,949.6
2016-03-22T05:36:14.961Z,949.61
2016-03-22T05:37:14.971Z,949.57
2016-03-22T05:38:14.977Z,949.56
2016-03-22T05:39:15.026Z,949.58
2016-03-22T05:40:15.002Z,949.55
2016-03-22T05:41:15.010Z,949.58
2016-03-22T05:42:15.028Z,949.56
2016-03-22T05:43:15.047Z,949.54
2016-03-22T05:44:15.033Z,949.59
2016-03-22T05:45:15.067Z,949.6
2016-03-22T05:46:15.070Z,949.57
2016-03-22T05:47:15.072Z,949.56
2016-03-22T05:48:15.091Z,949.59
2016-03-22T05:49:15.110Z,949.62
2016-03-22T05:50:15.112Z,949.58
2016-03-22T05:51:15.131Z,949.62
2016-03-22T05:52:15.133Z,949.58
2016-03-22T05:53:15.152Z,949.6
2016-03-22T05:54:15.154Z,949.58
2016-03-22T05:55:15.204Z,949.56
2016-03-22T05:56:15.191Z,949.59
2016-03-22T05:57:15.193Z,949.56
2016-03-22T05:58:15.213Z,949.56
2016-03-22T05:59:15.230Z,949.61
2016-03-22T06:00:15.233Z,949.65
2016-03-22T06:01:15.235Z,949.62
2016-03-22T06:02:15.254Z,949.61
2016-03-22T06:03:15.273Z,949.64
2016-03-22T06:04:15.306Z,949.6
2016-03-22T06:05:15.293Z,949.63
2016-03-22T06:06:15.312Z,949.61
2016-03-22T06:07:15.314Z,949.6
2016-03-22T06:08:15.333Z,949.62
2016-03-22T06:09:15.336Z,949.62
2016-03-22T06:10:15.354Z,949.61
2016-03-22T06:11:15.372Z,949.59
2016-03-22T06:12:15.374Z,949.61
2016-03-22T06:13:15.393Z,949.62
2016-03-22T06:14:15.395Z,949.6
2016-03-22T06:15:15.414Z,949.62
2016-03-22T06:16:15.416Z,949.61
2016-03-22T06:17:15.450Z,949.62
2016-03-22T06:18:15.452Z,949.61
2016-03-22T06:19:15.455Z,949.62
2016-03-22T06:20:15.475Z,949.58
2016-03-22T06:21:15.493Z,949.57
2016-03-22T06:22:15.496Z,949.64
2016-03-22T06:23:15.513Z,949.6
2016-03-22T06:24:15.516Z,949.59
2016-03-22T06:25:15.535Z,949.59
2016-03-22T06:26:15.552Z,949.63
2016-03-22T06:27:15.555Z,949.64
2016-03-22T06:28:15.573Z,949.62
2016-03-22T06:29:15.593Z,949.63
2016-03-22T06:30:15.595Z,949.65
2016-03-22T06:31:15.613Z,949.62
2016-03-22T06:32:15.616Z,949.64
2016-03-22T06:33:15.634Z,949.6
2016-03-22T06:34:15.637Z,949.58
2016-03-22T06:35:15.655Z,949.59
2016-03-22T06:36:15.674Z,949.53
2016-03-22T06:37:15.676Z,949.56
2016-03-22T06:38:15.695Z,949.6
2016-03-22T06:39:15.712Z,949.55
2016-03-22T06:40:15.731Z,949.56
2016-03-22T06:41:15.734Z,949.57
2016-03-22T06:42:15.736Z,949.61
2016-03-22T06:43:15.756Z,949.56
2016-03-22T06:44:15.773Z,949.56
2016-03-22T06:45:15.776Z,949.59
2016-03-22T06:46:15.794Z,949.53
2016-03-22T06:47:15.813Z,949.57
2016-03-22T06:48:15.815Z,949.52
2016-03-22T06:49:15.833Z,949.56
2016-03-22T06:50:15.835Z,949.56
2016-03-22T06:51:15.854Z,949.56
2016-03-22T06:52:15.872Z,949.56
2016-03-22T06:53:15.875Z,949.53
2016-03-22T06:54:15.910Z,949.49
2016-03-22T06:55:15.912Z,949.5
2016-03-22T06:56:15.915Z,949.51
2016-03-22T06:57:15.932Z,949.51
2016-03-22T06:58:15.936Z,949.51
2016-03-22T06:59:15.954Z,949.5
2016-03-22T07:00:15.973Z,949.48
2016-03-22T07:01:15.990Z,949.48
2016-03-22T07:02:15.993Z,949.47
2016-03-22T07:03:16.059Z,949.46
2016-03-22T07:04:16.014Z,949.47
2016-03-22T07:05:16.033Z,949.5
2016-03-22T07:06:16.051Z,949.5
2016-03-22T07:07:16.054Z,949.51
2016-03-22T07:08:16.077Z,949.51
2016-03-22T07:09:16.095Z,949.49
2016-03-22T07:10:16.114Z,949.53
2016-03-22T07:11:16.116Z,949.49
2016-03-22T07:12:16.120Z,949.43
2016-03-22T07:13:16.137Z,949.47
2016-03-22T07:14:16.156Z,949.46
2016-03-22T07:15:16.205Z,949.46
2016-03-22T07:16:16.177Z,949.44
2016-03-22T07:17:16.180Z,949.45
2016-03-22T07:18:16.197Z,949.4
2016-03-22T07:19:16.216Z,949.44
2016-03-22T07:20:16.234Z,949.45
2016-03-22T07:21:16.237Z,949.48
2016-03-22T07:22:16.255Z,949.51
2016-03-22T07:23:16.273Z,949.44
2016-03-22T07:24:16.276Z,949.51
2016-03-22T07:25:16.310Z,949.48
2016-03-22T07:26:16.312Z,949.5
2016-03-22T07:27:16.315Z,949.49
2016-03-22T07:28:16.334Z,949.49
2016-03-22T07:29:16.352Z,949.46
2016-03-22T07:30:16.354Z,949.49
2016-03-22T07:31:16.373Z,949.5
2016-03-22T07:32:16.392Z,949.5
2016-03-22T07:33:16.409Z,949.53
2016-03-22T07:34:16.412Z,949.5
2016-03-22T07:35:16.431Z,949.49
2016-03-22T07:36:16.449Z,949.52
2016-03-22T07:37:16.467Z,949.54
2016-03-22T07:38:16.470Z,949.52
2016-03-22T07:39:16.489Z,949.53
2016-03-22T07:40:16.506Z,949.55
2016-03-22T07:41:16.509Z,949.54
2016-03-22T07:42:16.527Z,949.55
2016-03-22T07:43:16.547Z,949.58
2016-03-22T07:44:16.564Z,949.57
2016-03-22T07:45:16.567Z,949.57
2016-03-22T07:46:16.586Z,949.61
2016-03-22T07:47:16.603Z,949.58
2016-03-22T07:48:16.622Z,949.58
2016-03-22T07:49:16.640Z,949.53
2016-03-22T07:50:16.659Z,949.56
2016-03-22T07:51:16.661Z,949.56
2016-03-22T07:52:16.695Z,949.55
2016-03-22T07:53:16.698Z,949.57
2016-03-22T07:54:16.701Z,949.59
2016-03-22T07:55:16.734Z,949.58
2016-03-22T07:56:16.737Z,949.58
2016-03-22T07:57:16.755Z,949.57
2016-03-22T07:58:16.774Z,949.59
2016-03-22T07:59:16.792Z,949.58
2016-03-22T08:00:16.795Z,949.61
2016-03-22T08:01:16.813Z,949.56
2016-03-22T08:02:16.831Z,949.6
2016-03-22T08:03:16.850Z,949.56
2016-03-22T08:04:16.868Z,949.53
2016-03-22T08:05:16.870Z,949.52
2016-03-22T08:06:16.890Z,949.47
2016-03-22T08:07:16.907Z,949.5
2016-03-22T08:08:16.926Z,949.5
2016-03-22T08:09:16.944Z,949.53
2016-03-22T08:10:16.962Z,949.53
2016-03-22T08:11:16.981Z,949.47
2016-03-22T08:12:16.999Z,949.48
2016-03-22T08:13:17.002Z,949.47
2016-03-22T08:14:17.020Z,949.5
2016-03-22T08:15:17.038Z,949.48
2016-03-22T08:16:17.056Z,949.53
2016-03-22T08:17:17.075Z,949.55
2016-03-22T08:18:17.094Z,949.5
2016-03-22T08:19:17.111Z,949.56
2016-03-22T08:20:17.130Z,949.52
2016-03-22T08:21:17.148Z,949.48
2016-03-22T08:22:17.152Z,949.47
2016-03-22T08:23:17.185Z,949.43
2016-03-22T08:24:17.203Z,949.44
2016-03-22T08:25:17.205Z,949.49
2016-03-22T08:26:17.224Z,949.53
2016-03-22T08:27:17.243Z,949.49
2016-03-22T08:28:17.261Z,949.5
2016-03-22T08:29:17.280Z,949.47
2016-03-22T08:30:17.298Z,949.53
2016-03-22T08:31:17.315Z,949.6
2016-03-22T08:32:17.349Z,949.59
2016-03-22T08:33:17.352Z,949.49
2016-03-22T08:34:17.370Z,949.5
2016-03-22T08:35:17.404Z,949.48
2016-03-22T08:36:17.422Z,949.54
2016-03-22T08:37:17.442Z,949.46
2016-03-22T08:38:17.459Z,949.4
2016-03-22T08:39:17.478Z,949.43
2016-03-22T08:40:17.496Z,949.48
2016-03-22T08:41:17.530Z,949.42
2016-03-22T08:42:17.548Z,949.41
2016-03-22T08:43:17.567Z,949.4
2016-03-22T08:44:17.586Z,949.39
2016-03-22T08:45:17.603Z,949.39
2016-03-22T08:46:17.621Z,949.35
2016-03-22T08:47:17.640Z,949.32
2016-03-22T08:48:17.658Z,949.3
2016-03-22T08:49:17.692Z,949.35
2016-03-22T08:50:17.711Z,949.35
2016-03-22T08:51:17.744Z,949.33
2016-03-22T08:52:17.747Z,949.35
2016-03-22T08:53:17.765Z,949.34
2016-03-22T08:54:17.800Z,949.34
2016-03-22T08:55:17.818Z,949.35
2016-03-22T08:56:17.835Z,949.3
2016-03-22T08:57:17.871Z,949.34
2016-03-22T08:58:17.873Z,949.33
2016-03-22T08:59:17.922Z,949.31
2016-03-22T09:00:17.941Z,949.28
2016-03-22T09:01:17.960Z,949.3
2016-03-22T09:02:17.962Z,949.27
2016-03-22T09:03:17.995Z,949.28
2016-03-22T09:04:18.014Z,949.26
2016-03-22T09:05:18.032Z,949.28
2016-03-22T09:06:18.066Z,949.29
2016-03-22T09:07:18.081Z,949.3
2016-03-22T09:08:18.100Z,949.25
2016-03-22T09:09:18.134Z,949.26
2016-03-22T09:10:18.152Z,949.2
2016-03-22T09:11:18.170Z,949.24
2016-03-22T09:12:18.205Z,949.21
2016-03-22T09:13:18.223Z,949.23
2016-03-22T09:14:18.256Z,949.2
2016-03-22T09:15:18.259Z,949.23
2016-03-22T09:16:18.293Z,949.14
2016-03-22T09:17:18.311Z,949.18
2016-03-22T09:18:18.329Z,949.13
2016-03-22T09:19:18.364Z,949.19
2016-03-22T09:20:18.382Z,949.2
2016-03-22T09:21:18.399Z,949.08
2016-03-22T09:22:18.434Z,949.06
2016-03-22T09:23:18.452Z,949.03
2016-03-22T09:24:18.487Z,949.02
2016-03-22T09:25:18.504Z,949.05
2016-03-22T09:26:18.539Z,949.03
2016-03-22T09:27:18.557Z,948.96
2016-03-22T09:28:18.575Z,948.97
2016-03-22T09:29:18.609Z,948.96
2016-03-22T09:30:18.628Z,948.96
2016-03-22T09:31:18.646Z,948.98
2016-03-22T09:32:18.679Z,948.95
2016-03-22T09:33:18.698Z,948.96
2016-03-22T09:34:18.717Z,948.95
2016-03-22T09:35:18.750Z,949
2016-03-22T09:36:18.770Z,948.94
2016-03-22T09:37:18.818Z,948.93
2016-03-22T09:38:18.820Z,948.89
2016-03-22T09:39:18.839Z,948.88
2016-03-22T09:40:18.858Z,948.84
2016-03-22T09:41:18.892Z,948.91
2016-03-22T09:42:18.910Z,948.87
2016-03-22T09:43:18.928Z,948.89
2016-03-22T09:44:18.961Z,948.89
2016-03-22T09:45:18.981Z,948.8
2016-03-22T09:46:18.999Z,948.83
2016-03-22T09:47:19.033Z,948.78
2016-03-22T09:48:19.051Z,948.74
2016-03-22T09:49:19.069Z,948.73
2016-03-22T09:50:19.088Z,948.71
2016-03-22T09:51:19.121Z,948.68
2016-03-22T09:52:19.140Z,948.67
2016-03-22T09:53:19.158Z,948.66
2016-03-22T09:54:19.176Z,948.68
2016-03-22T09:55:19.196Z,948.64
2016-03-22T09:56:19.229Z,948.61
2016-03-22T09:57:19.247Z,948.61
2016-03-22T09:58:19.265Z,948.61
2016-03-22T09:59:19.284Z,948.62
2016-03-22T10:00:19.302Z,948.61
2016-03-22T10:01:19.336Z,948.6
2016-03-22T10:02:19.354Z,948.6
2016-03-22T10:03:19.373Z,948.57
2016-03-22T10:04:19.406Z,948.56
2016-03-22T10:05:19.410Z,948.56
2016-03-22T10:06:19.428Z,948.57
2016-03-22T10:07:19.445Z,948.6
2016-03-22T10:08:19.481Z,948.58
2016-03-22T10:09:19.498Z,948.54
2016-03-22T10:10:19.517Z,948.53
2016-03-22T10:11:19.534Z,948.55
2016-03-22T10:12:19.553Z,948.51
2016-03-22T10:13:19.572Z,948.5
2016-03-22T10:14:19.590Z,948.48
2016-03-22T10:15:19.608Z,948.48
2016-03-22T10:16:19.642Z,948.5
2016-03-22T10:17:19.660Z,948.5
2016-03-22T10:18:19.678Z,948.52
2016-03-22T10:19:19.697Z,948.51
2016-03-22T10:20:19.715Z,948.52
2016-03-22T10:21:19.733Z,948.47
2016-03-22T10:22:19.752Z,948.48
2016-03-22T10:23:19.770Z,948.48
2016-03-22T10:24:19.788Z,948.45
2016-03-22T10:25:19.822Z,948.47
2016-03-22T10:26:19.825Z,948.47
2016-03-22T10:27:19.843Z,948.42
2016-03-22T10:28:19.862Z,948.41
2016-03-22T10:29:19.880Z,948.46
2016-03-22T10:30:19.898Z,948.44
2016-03-22T10:31:19.932Z,948.4
2016-03-22T10:32:19.951Z,948.4
2016-03-22T10:33:19.953Z,948.42
2016-03-22T10:34:19.987Z,948.38
2016-03-22T10:35:19.990Z,948.38
2016-03-22T10:36:20.024Z,948.35
2016-03-22T10:37:20.042Z,948.35
2016-03-22T10:38:20.061Z,948.36
2016-03-22T10:39:20.079Z,948.4
2016-03-22T10:40:20.097Z,948.35
2016-03-22T10:41:20.114Z,948.35
2016-03-22T10:42:20.133Z,948.37
2016-03-22T10:43:20.152Z,948.34
2016-03-22T10:44:20.170Z,948.29
2016-03-22T10:45:20.189Z,948.32
2016-03-22T10:46:20.207Z,948.34
2016-03-22T10:47:20.225Z,948.31
2016-03-22T10:48:20.259Z,948.34
2016-03-22T10:49:20.278Z,948.3
2016-03-22T10:50:20.296Z,948.26
2016-03-22T10:51:20.313Z,948.24
2016-03-22T10:52:20.332Z,948.26
2016-03-22T10:53:20.366Z,948.23
2016-03-22T10:54:20.369Z,948.26
2016-03-22T10:55:20.388Z,948.24
2016-03-22T10:56:20.421Z,948.25
2016-03-22T10:57:20.440Z,948.22
2016-03-22T10:58:20.457Z,948.2
2016-03-22T10:59:20.477Z,948.2
2016-03-22T11:00:20.495Z,948.21
2016-03-22T11:01:20.512Z,948.22
2016-03-22T11:02:20.547Z,948.16
2016-03-22T11:03:20.563Z,948.22
2016-03-22T11:04:20.576Z,948.22
2016-03-22T11:05:20.587Z,948.21
2016-03-22T11:06:20.599Z,948.23
2016-03-22T11:07:20.613Z,948.26
2016-03-22T11:08:20.625Z,948.22
2016-03-22T11:09:20.641Z,948.22
2016-03-22T11:10:20.657Z,948.18
2016-03-22T11:11:20.673Z,948.22
2016-03-22T11:12:20.705Z,948.19
2016-03-22T11:13:20.721Z,948.2
2016-03-22T11:14:20.740Z,948.19
2016-03-22T11:15:20.757Z,948.17
2016-03-22T11:16:20.774Z,948.15
2016-03-22T11:17:20.791Z,948.16
2016-03-22T11:18:20.810Z,948.15
2016-03-22T11:19:20.827Z,948.14
2016-03-22T11:20:20.844Z,948.13
2016-03-22T11:21:20.863Z,948.11
2016-03-22T11:22:20.881Z,948.11
2016-03-22T11:23:20.899Z,948.1
2016-03-22T11:24:20.933Z,948.06
2016-03-22T11:25:20.935Z,948.11
2016-03-22T11:26:20.954Z,948.11
2016-03-22T11:27:20.973Z,948.19
2016-03-22T11:28:21.006Z,948.16
2016-03-22T11:29:21.009Z,948.16
2016-03-22T11:30:21.027Z,948.12
2016-03-22T11:31:21.062Z,948.1
2016-03-22T11:32:21.079Z,948.1
2016-03-22T11:33:21.098Z,948.12
2016-03-22T11:34:21.116Z,948.08
2016-03-22T11:35:21.134Z,948.11
2016-03-22T11:36:21.153Z,948.09
2016-03-22T11:37:21.172Z,948.09
2016-03-22T11:38:21.189Z,948.13
2016-03-22T11:39:21.207Z,948.11
2016-03-22T11:40:21.226Z,948.1
2016-03-22T11:41:21.244Z,948.14
2016-03-22T11:42:21.263Z,948.13
2016-03-22T11:43:21.281Z,948.09
2016-03-22T11:44:21.299Z,948.14
2016-03-22T11:45:21.318Z,948.09
2016-03-22T11:46:21.336Z,948.08
2016-03-22T11:47:21.354Z,948.06
2016-03-22T11:48:21.372Z,948.05
2016-03-22T11:49:21.390Z,948.07
2016-03-22T11:50:21.410Z,948.05
2016-03-22T11:51:21.427Z,948.05
2016-03-22T11:52:21.446Z,947.99
2016-03-22T11:53:21.464Z,948.01
2016-03-22T11:54:21.482Z,948.01
2016-03-22T11:55:21.501Z,948.02
2016-03-22T11:56:21.504Z,948.02
2016-03-22T11:57:21.553Z,948.04
2016-03-22T11:58:21.556Z,948.04
2016-03-22T11:59:21.559Z,948.05
2016-03-22T12:00:21.576Z,948.05
2016-03-22T12:01:21.611Z,948.06
2016-03-22T12:02:21.614Z,948.01
2016-03-22T12:03:21.647Z,948.04
2016-03-22T12:04:21.650Z,948.03
2016-03-22T12:05:21.668Z,948.01
2016-03-22T12:06:21.686Z,947.96
2016-03-22T12:07:21.705Z,947.97
2016-03-22T12:08:21.722Z,947.97
2016-03-22T12:09:21.742Z,947.98
2016-03-22T12:10:21.760Z,947.97
2016-03-22T12:11:21.778Z,947.97
2016-03-22T12:12:21.797Z,947.96
2016-03-22T12:13:21.814Z,947.96
2016-03-22T12:14:21.833Z,947.98
2016-03-22T12:15:21.852Z,947.95
2016-03-22T12:16:21.885Z,947.95
2016-03-22T12:17:21.888Z,947.91
2016-03-22T12:18:21.906Z,947.95
2016-03-22T12:19:21.925Z,947.9
2016-03-22T12:20:21.927Z,947.93
2016-03-22T12:21:21.946Z,947.91
2016-03-22T12:22:21.964Z,947.89
2016-03-22T12:23:22.013Z,947.91
2016-03-22T12:24:22.001Z,947.85
2016-03-22T12:25:22.019Z,947.86
2016-03-22T12:26:22.053Z,947.81
2016-03-22T12:27:22.055Z,947.85
2016-03-22T12:28:22.073Z,947.83
2016-03-22T12:29:22.092Z,947.82
2016-03-22T12:30:22.110Z,947.87
2016-03-22T12:31:22.129Z,947.85